Terminal Aerodrome Forecast
Issued by NWS

Home | Current Version | Previous Version | Text Only | Print | Product List | Glossary On
Versions: 1 2 3 4 5 6 7 8 9 10 11 12 13 14 15 16 17 18 19 20 21
063
FTAK31 PAJN 290540
TAFAYA
TAF
PAYA 290540Z 2906/3006 VRB04KT P6SM FEW025 OVC035
     FM291100 10004KT P6SM VCSH BKN015 OVC070
     FM291500 10006KT P6SM SCT015 OVC025
     FM292000 10008KT P6SM -RA OVC035
      AMD LTD TO CLD VIS AND WIND=

USA.gov is the U.S. government's official web portal to all federal, state and local government web resources and services.